createdAt,value
2017-09-18T00:00:42.496Z,71.38
2017-09-18T00:01:52.852Z,71.61
2017-09-18T00:03:03.190Z,71.7
2017-09-18T00:04:13.520Z,71.8
2017-09-18T00:05:23.226Z,71.61
2017-09-18T00:06:33.563Z,71.8
2017-09-18T00:07:43.898Z,71.42
2017-09-18T00:08:54.232Z,71.42
2017-09-18T00:10:04.568Z,71.89
2017-09-18T00:11:14.917Z,71.8
2017-09-18T00:12:25.247Z,72.18
2017-09-18T00:13:35.294Z,72.08
2017-09-18T00:14:45.627Z,72.18
2017-09-18T00:15:55.983Z,72.18
2017-09-18T00:17:06.319Z,72.18
2017-09-18T00:18:16.661Z,71.8
2017-09-18T00:19:27.229Z,71.8
2017-09-18T00:20:37.550Z,72.18
2017-09-18T00:21:47.892Z,72.18
2017-09-18T00:22:58.234Z,71.8
2017-09-18T00:24:08.579Z,72.08
2017-09-18T00:25:18.917Z,71.51
2017-09-18T00:26:28.937Z,71.7
2017-09-18T00:27:39.291Z,71.7
2017-09-18T00:28:49.736Z,71.7
2017-09-18T00:30:00.129Z,71.89
2017-09-18T00:31:09.837Z,71.7
2017-09-18T00:32:22.544Z,71.89
2017-09-18T00:33:32.896Z,71.89
2017-09-18T00:34:43.233Z,71.89
2017-09-18T00:35:53.588Z,71.61
2017-09-18T00:37:03.946Z,71.7
2017-09-18T00:38:13.970Z,71.61
2017-09-18T00:39:24.309Z,71.7
2017-09-18T00:40:34.354Z,71.57
2017-09-18T00:41:44.717Z,71.76
2017-09-18T00:42:54.742Z,71.86
2017-09-18T00:44:05.075Z,72.33
2017-09-18T00:45:15.102Z,71.76
2017-09-18T00:46:25.114Z,71.86
2017-09-18T00:47:35.471Z,71.86
2017-09-18T00:48:45.222Z,71.57
2017-09-18T00:49:55.243Z,72.14
2017-09-18T00:51:05.581Z,71.57
2017-09-18T00:52:15.286Z,71.86
2017-09-18T00:53:25.623Z,71.86
2017-09-18T00:54:35.945Z,71.67
2017-09-18T00:55:46.292Z,71.86
2017-09-18T00:56:56.310Z,71.86
2017-09-18T00:58:06.321Z,71.86
2017-09-18T00:59:16.668Z,71.86
2017-09-18T01:00:27.600Z,71.67
2017-09-18T01:01:37.956Z,71.67
2017-09-18T01:02:48.301Z,71.67
2017-09-18T01:03:58.647Z,71.57
2017-09-18T01:05:08.997Z,71.95
2017-09-18T01:06:19.349Z,71.63
2017-09-18T01:07:29.680Z,72.01
2017-09-18T01:08:40.017Z,72.01
2017-09-18T01:09:50.028Z,71.82
2017-09-18T01:11:00.355Z,71.72
2017-09-18T01:12:10.382Z,72.2
2017-09-18T01:13:20.725Z,72.11
2017-09-18T01:14:31.051Z,71.34
2017-09-18T01:15:41.392Z,71.72
2017-09-18T01:16:53.549Z,71.53
2017-09-18T01:18:03.895Z,71.44
2017-09-18T01:19:14.232Z,70.87
2017-09-18T01:20:24.592Z,71.06
2017-09-18T01:21:34.925Z,70.96
2017-09-18T01:22:45.258Z,71.15
2017-09-18T01:23:54.956Z,71.06
2017-09-18T01:25:04.984Z,71.34
2017-09-18T01:26:15.554Z,71.44
2017-09-18T01:27:26.139Z,71.31
2017-09-18T01:28:36.484Z,71.21
2017-09-18T01:29:46.823Z,71.21
2017-09-18T01:30:57.151Z,71.12
2017-09-18T01:32:07.489Z,71.02
2017-09-18T01:33:17.524Z,71.59
2017-09-18T01:34:27.230Z,71.41
2017-09-18T01:35:37.586Z,71.5
2017-09-18T01:36:47.620Z,71.5
2017-09-18T01:37:57.966Z,71.41
2017-09-18T01:39:08.307Z,71.31
2017-09-18T01:40:18.314Z,71.44
2017-09-18T01:41:28.317Z,70.92
2017-09-18T01:42:38.353Z,71.02
2017-09-18T01:43:48.692Z,71.41
2017-09-18T01:44:58.717Z,71.02
2017-09-18T01:46:09.060Z,71.34
2017-09-18T01:47:19.090Z,71.34
2017-09-18T01:48:29.657Z,71.34
2017-09-18T01:49:39.998Z,71.06
2017-09-18T01:50:50.345Z,71.15
2017-09-18T01:52:00.681Z,71.44
2017-09-18T01:53:11.063Z,71.31
2017-09-18T01:54:21.397Z,71.53
2017-09-18T01:55:31.749Z,71.53
2017-09-18T01:56:42.082Z,71.34
2017-09-18T01:57:52.432Z,71.5
2017-09-18T01:59:02.777Z,71.63
2017-09-18T02:00:13.101Z,71.63
2017-09-18T02:01:23.436Z,71.53
2017-09-18T02:02:33.777Z,71.25
2017-09-18T02:03:44.142Z,71.44
2017-09-18T02:04:54.487Z,71.15
2017-09-18T02:06:04.819Z,71.25
2017-09-18T02:07:15.173Z,71.15
2017-09-18T02:08:25.529Z,71.25
2017-09-18T02:09:35.543Z,71.15
2017-09-18T02:10:45.884Z,71.25
2017-09-18T02:11:55.903Z,71.06
2017-09-18T02:13:06.248Z,71.25
2017-09-18T02:14:16.581Z,71.15
2017-09-18T02:15:26.633Z,71.44
2017-09-18T02:16:36.345Z,71.15
2017-09-18T02:17:46.673Z,71.34
2017-09-18T02:18:57.007Z,71.44
2017-09-18T02:20:07.356Z,71.53
2017-09-18T02:21:17.399Z,70.96
2017-09-18T02:22:30.248Z,71.06
2017-09-18T02:23:40.274Z,71.15
2017-09-18T02:24:50.616Z,71.06
2017-09-18T02:26:00.968Z,70.96
2017-09-18T02:27:11.314Z,71.06
2017-09-18T02:28:22.848Z,70.96
2017-09-18T02:29:32.868Z,70.96
2017-09-18T02:30:43.206Z,71.15
2017-09-18T02:31:53.552Z,71.06
2017-09-18T02:33:03.889Z,71.72
2017-09-18T02:34:13.910Z,70.87
2017-09-18T02:35:23.952Z,71.15
2017-09-18T02:36:33.970Z,71.63
2017-09-18T02:37:44.007Z,71.44
2017-09-18T02:38:54.036Z,71.44
2017-09-18T02:40:04.379Z,71.44
2017-09-18T02:41:14.716Z,71.53
2017-09-18T02:42:25.055Z,72.11
2017-09-18T02:43:35.075Z,71.72
2017-09-18T02:44:45.423Z,72.01
2017-09-18T02:45:55.794Z,71.72
2017-09-18T02:47:06.130Z,71.63
2017-09-18T02:48:16.490Z,71.72
2017-09-18T02:49:26.838Z,71.59
2017-09-18T02:50:37.179Z,71.78
2017-09-18T02:51:47.518Z,71.78
2017-09-18T02:52:57.866Z,71.69
2017-09-18T02:54:12.746Z,71.59
2017-09-18T02:55:23.082Z,71.59
2017-09-18T02:56:33.442Z,71.98
2017-09-18T02:57:43.454Z,71.98
2017-09-18T02:58:53.788Z,72.17
2017-09-18T03:00:04.180Z,72.07
2017-09-18T03:01:14.206Z,71.41
2017-09-18T03:33:25.047Z,68.68
2017-09-18T03:34:35.078Z,69.63
2017-09-18T03:35:45.410Z,70.01
2017-09-18T03:36:55.417Z,70.97
2017-09-18T03:38:05.748Z,71.15
2017-09-18T03:39:16.124Z,72.01
2017-09-18T03:40:26.452Z,71.53
2017-09-18T03:41:36.804Z,71.91
2017-09-18T03:42:47.159Z,72.01
2017-09-18T03:43:57.506Z,72.39
2017-09-18T03:45:07.580Z,72.62
2017-09-18T03:46:17.906Z,72.62
2017-09-18T03:47:28.232Z,72.24
2017-09-18T03:48:38.567Z,72.52
2017-09-18T03:49:48.905Z,72.17
2017-09-18T03:50:58.928Z,71.98
2017-09-18T03:52:09.264Z,71.8
2017-09-18T03:53:19.330Z,71.98
2017-09-18T03:54:29.665Z,72.17
2017-09-18T03:55:39.676Z,72.02
2017-09-18T03:56:50.097Z,71.45
2017-09-18T03:58:00.424Z,71.64
2017-09-18T03:59:10.454Z,71.45
2017-09-18T04:00:20.464Z,71.55
2017-09-18T04:01:30.804Z,71.55
2017-09-18T04:02:41.180Z,71.26
2017-09-18T04:03:51.192Z,70.69
2017-09-18T04:05:01.208Z,70.88
2017-09-18T04:06:11.211Z,71.07
2017-09-18T04:07:21.538Z,71.39
2017-09-18T04:08:31.933Z,70.82
2017-09-18T04:09:41.950Z,71.11
2017-09-18T04:10:51.968Z,71.01
2017-09-18T04:12:02.328Z,71.2
2017-09-18T04:13:12.531Z,71.3
2017-09-18T04:14:22.563Z,71.3
2017-09-18T04:15:32.903Z,71.01
2017-09-18T04:16:43.232Z,71.2
2017-09-18T04:17:53.244Z,71.2
2017-09-18T04:19:03.267Z,70.92
2017-09-18T04:20:13.605Z,70.92
2017-09-18T04:21:23.937Z,70.92
2017-09-18T04:22:33.971Z,70.92
2017-09-18T04:23:43.997Z,70.92
2017-09-18T04:24:54.344Z,70.82
2017-09-18T04:26:04.674Z,70.63
2017-09-18T04:27:14.717Z,70.92
2017-09-18T04:28:25.098Z,70.82
2017-09-18T04:29:35.434Z,70.72
2017-09-18T04:30:45.814Z,70.53
2017-09-18T04:31:55.525Z,70.72
2017-09-18T04:33:05.881Z,70.72
2017-09-18T04:34:15.892Z,70.63
2017-09-18T04:35:25.919Z,70.53
2017-09-18T04:36:35.943Z,70.72
2017-09-18T04:37:46.274Z,70.44
2017-09-18T04:38:56.274Z,70.82
2017-09-18T04:40:06.298Z,70.82
2017-09-18T04:41:16.644Z,70.92
2017-09-18T04:42:26.665Z,70.92
2017-09-18T04:43:37.047Z,70.38
2017-09-18T04:44:47.074Z,70.34
2017-09-18T04:45:57.399Z,70.72
2017-09-18T04:47:07.737Z,70.86
2017-09-18T04:48:18.333Z,70.86
2017-09-18T04:49:28.685Z,70.67
2017-09-18T04:50:39.021Z,70.38
2017-09-18T04:51:49.028Z,70.28
2017-09-18T04:52:59.406Z,70.19
2017-09-18T04:54:09.750Z,70.19
2017-09-18T04:55:20.080Z,70.19
2017-09-18T04:56:30.101Z,70.28
2017-09-18T04:57:40.450Z,70.09
2017-09-18T04:58:50.470Z,70.19
2017-09-18T05:00:00.812Z,70
2017-09-18T05:01:10.827Z,70.28
2017-09-18T05:02:20.864Z,70
2017-09-18T05:03:31.211Z,70.28
2017-09-18T05:04:41.544Z,70.28
2017-09-18T05:05:51.584Z,70.38
2017-09-18T05:07:01.648Z,70.19
2017-09-18T05:08:11.994Z,70.51
2017-09-18T05:09:22.019Z,70
2017-09-18T05:10:32.368Z,70.57
2017-09-18T05:11:42.940Z,70.51
2017-09-18T05:12:53.270Z,70.47
2017-09-18T05:14:03.601Z,70.42
2017-09-18T05:15:13.941Z,70.51
2017-09-18T05:16:24.292Z,70.51
2017-09-18T05:17:34.313Z,70.51
2017-09-18T05:18:44.324Z,70.51
2017-09-18T05:19:54.353Z,70.51
2017-09-18T05:21:04.377Z,70.51
2017-09-18T05:22:14.389Z,70.61
2017-09-18T05:23:24.413Z,70.13
2017-09-18T05:24:36.342Z,69.93
2017-09-18T05:25:46.680Z,70.22
2017-09-18T05:26:57.002Z,70.13
2017-09-18T05:28:07.339Z,70.22
2017-09-18T05:29:17.354Z,70.16
2017-09-18T05:30:27.726Z,70.45
2017-09-18T05:31:37.739Z,70.36
2017-09-18T05:32:48.075Z,70.07
2017-09-18T05:33:58.097Z,70.45
2017-09-18T05:35:08.114Z,69.87
2017-09-18T05:36:18.510Z,69.68
2017-09-18T05:37:29.054Z,69.68
2017-09-18T05:38:39.395Z,69.68
2017-09-18T05:39:49.422Z,69.91
2017-09-18T05:40:59.474Z,69.91
2017-09-18T05:42:09.801Z,69.72
2017-09-18T05:43:19.826Z,69.62
2017-09-18T05:44:30.222Z,69.53
2017-09-18T05:45:40.563Z,69.82
2017-09-18T05:46:50.907Z,69.82
2017-09-18T05:48:01.265Z,69.82
2017-09-18T05:49:11.600Z,69.82
2017-09-18T05:50:21.625Z,69.82
2017-09-18T05:51:31.974Z,69.82
2017-09-18T05:52:41.997Z,70.14
2017-09-18T05:53:52.338Z,70.04
2017-09-18T05:55:02.368Z,69.95
2017-09-18T05:56:12.716Z,70.04
2017-09-18T05:57:23.054Z,70.04
2017-09-18T05:58:33.088Z,70.04
2017-09-18T05:59:43.167Z,70.04
2017-09-18T06:00:53.520Z,69.89
2017-09-18T06:02:03.879Z,69.89
2017-09-18T06:03:14.221Z,69.89
2017-09-18T06:04:24.573Z,70.07
2017-09-18T06:05:34.281Z,70.07
2017-09-18T06:06:44.612Z,70.07
2017-09-18T06:07:54.633Z,69.89
2017-09-18T06:09:04.670Z,69.89
2017-09-18T06:10:14.696Z,69.79
2017-09-18T06:11:24.714Z,70.07
2017-09-18T06:12:35.073Z,69.82
2017-09-18T06:13:45.418Z,70.11
2017-09-18T06:14:55.782Z,69.82
2017-09-18T06:16:06.132Z,70.11
2017-09-18T06:17:16.484Z,70.11
2017-09-18T06:18:26.521Z,69.64
2017-09-18T06:19:36.868Z,69.64
2017-09-18T06:20:46.885Z,70.01
2017-09-18T06:21:57.235Z,70.15
2017-09-18T06:23:07.252Z,70.11
2017-09-18T06:24:17.608Z,69.86
2017-09-18T06:25:27.654Z,69.95
2017-09-18T06:26:37.998Z,69.95
2017-09-18T06:27:48.333Z,69.95
2017-09-18T06:28:58.666Z,69.95
2017-09-18T06:30:08.708Z,70.15
2017-09-18T06:31:19.051Z,70.05
2017-09-18T06:32:29.086Z,70.43
2017-09-18T06:33:39.440Z,70.05
2017-09-18T06:34:49.499Z,70.24
2017-09-18T06:35:59.213Z,70.62
2017-09-18T06:37:09.538Z,70.66
2017-09-18T06:38:19.883Z,70.76
2017-09-18T06:39:30.221Z,70.66
2017-09-18T06:40:40.239Z,70.18
2017-09-18T06:41:50.602Z,69.8
2017-09-18T06:43:00.623Z,69.99
2017-09-18T06:44:10.958Z,70.03
2017-09-18T06:45:21.306Z,70.03
2017-09-18T06:46:31.648Z,70.18
2017-09-18T06:47:41.984Z,69.93
2017-09-18T06:48:53.321Z,70.12
2017-09-18T06:50:03.420Z,70.03
2017-09-18T06:51:13.134Z,70.7
2017-09-18T06:52:23.475Z,70.5
2017-09-18T06:53:33.921Z,70.31
2017-09-18T06:54:43.973Z,70.6
2017-09-18T06:55:54.320Z,70.6
2017-09-18T06:57:04.350Z,70.5
2017-09-18T06:58:16.301Z,70.5
2017-09-18T06:59:26.661Z,70.31
2017-09-18T07:00:37.015Z,70.31
2017-09-18T07:01:47.411Z,70.21
2017-09-18T07:02:57.765Z,70.31
2017-09-18T07:04:08.110Z,70.41
2017-09-18T07:05:18.134Z,70.79
2017-09-18T07:06:28.477Z,70.7
2017-09-18T07:07:38.814Z,70.5
2017-09-18T07:08:49.169Z,70.7
2017-09-18T07:09:59.526Z,70.73
2017-09-18T07:11:09.904Z,70.15
2017-09-18T07:12:20.241Z,70.25
2017-09-18T07:13:30.628Z,70.06
2017-09-18T07:14:40.326Z,69.96
2017-09-18T07:15:50.031Z,70.15
2017-09-18T07:17:02.363Z,70.09
2017-09-18T07:18:12.392Z,70
2017-09-18T07:19:22.718Z,70.29
2017-09-18T07:20:33.102Z,70.29
2017-09-18T07:21:43.454Z,69.9
2017-09-18T07:22:53.802Z,69.9
2017-09-18T07:24:03.513Z,69.9
2017-09-18T07:25:13.608Z,69.81
2017-09-18T07:26:23.957Z,69.93
2017-09-18T07:27:34.309Z,70.03
2017-09-18T07:28:44.640Z,70.32
2017-09-18T07:29:54.662Z,70.03
2017-09-18T07:31:05.014Z,69.84
2017-09-18T07:32:15.365Z,69.93
2017-09-18T07:33:25.711Z,70.07
2017-09-18T07:34:36.056Z,70.17
2017-09-18T07:35:46.408Z,69.97
2017-09-18T07:36:56.441Z,69.78
2017-09-18T07:38:06.141Z,69.97
2017-09-18T07:39:16.505Z,69.87
2017-09-18T07:40:26.844Z,69.91
2017-09-18T07:41:36.905Z,69.87
2017-09-18T07:42:47.256Z,69.91
2017-09-18T07:43:57.270Z,69.72
2017-09-18T07:45:07.612Z,69.81
2017-09-18T07:46:17.652Z,70.01
2017-09-18T07:47:27.997Z,69.62
2017-09-18T07:48:38.407Z,69.66
2017-09-18T07:49:48.432Z,69.66
2017-09-18T07:50:58.776Z,69.66
2017-09-18T07:52:08.814Z,69.56
2017-09-18T07:53:19.163Z,70.14
2017-09-18T07:54:29.518Z,69.69
2017-09-18T07:55:39.555Z,69.79
2017-09-18T07:56:49.588Z,69.12
2017-09-18T07:57:59.635Z,69.5
2017-09-18T07:59:09.972Z,69.4
2017-09-18T08:00:19.739Z,69.12
2017-09-18T08:01:30.107Z,69.73
2017-09-18T08:02:40.435Z,69.06
2017-09-18T08:03:50.782Z,69.63
2017-09-18T08:05:01.150Z,69.82
2017-09-18T08:06:11.538Z,69.92
2017-09-18T08:07:21.891Z,70.11
2017-09-18T08:08:32.221Z,70.3
2017-09-18T08:09:42.242Z,69.92
2017-09-18T08:10:52.589Z,69.76
2017-09-18T08:12:02.917Z,69.76
2017-09-18T08:13:13.282Z,70.15
2017-09-18T08:14:23.339Z,70.05
2017-09-18T08:15:33.693Z,70.05
2017-09-18T08:16:43.532Z,69.95
2017-09-18T08:17:53.246Z,70.15
2017-09-18T08:19:03.274Z,69.95
2017-09-18T08:20:13.643Z,69.67
2017-09-18T08:21:23.687Z,70.05
2017-09-18T08:22:33.772Z,70.05
2017-09-18T08:23:44.133Z,70.05
2017-09-18T08:24:53.846Z,70.05
2017-09-18T08:26:04.190Z,69.95
2017-09-18T08:27:14.539Z,70.05
2017-09-18T08:28:24.895Z,70.53
2017-09-18T08:29:36.934Z,70.24
2017-09-18T08:30:47.270Z,69.99
2017-09-18T08:31:57.296Z,69.99
2017-09-18T08:33:07.012Z,69.22
2017-09-18T08:34:17.360Z,69.73
2017-09-18T08:35:27.747Z,69.54
2017-09-18T08:36:38.111Z,69.45
2017-09-18T08:37:49.164Z,69.64
2017-09-18T08:39:02.097Z,69.83
2017-09-18T08:40:14.521Z,69.48
2017-09-18T08:41:24.918Z,69.96
2017-09-18T08:42:35.324Z,69.96
2017-09-18T08:43:45.700Z,69.29
2017-09-18T08:44:55.421Z,69.19
2017-09-18T08:46:05.777Z,70
2017-09-18T08:47:16.140Z,69.67
2017-09-18T08:48:26.481Z,69.71
2017-09-18T08:49:36.835Z,70.35
2017-09-18T08:50:47.199Z,69.87
2017-09-18T08:51:57.570Z,69.71
2017-09-18T08:53:07.939Z,69.61
2017-09-18T08:54:18.282Z,69.23
2017-09-18T08:55:28.648Z,69.64
2017-09-18T08:56:38.995Z,69.16
2017-09-18T08:57:49.342Z,69.2
2017-09-18T08:58:59.383Z,68.81
2017-09-18T09:00:12.279Z,68.75
2017-09-18T09:01:22.636Z,68.46
2017-09-18T09:02:32.997Z,68.59
2017-09-18T09:03:43.374Z,67.72
2017-09-18T09:04:53.722Z,67.75
2017-09-18T09:06:04.087Z,68.14
2017-09-18T09:07:14.133Z,69.46
2017-09-18T09:08:24.486Z,69.81
2017-09-18T09:09:34.884Z,69.9
2017-09-18T09:10:45.237Z,70.26
2017-09-18T09:11:55.595Z,69.78
2017-09-18T09:13:05.953Z,69.9
2017-09-18T09:14:15.986Z,69.32
2017-09-18T09:15:26.412Z,70.1
2017-09-18T09:16:36.766Z,70.1
2017-09-18T09:17:47.111Z,69.81
2017-09-18T09:18:57.162Z,69.97
2017-09-18T09:20:07.517Z,70.06
2017-09-18T09:21:17.926Z,70.26
2017-09-18T09:22:27.966Z,70.36
2017-09-18T09:23:38.309Z,70.7
2017-09-18T09:24:48.665Z,70.7
2017-09-18T09:25:59.023Z,70.32
2017-09-18T09:27:12.378Z,70.22
2017-09-18T09:28:22.736Z,69.97
2017-09-18T09:29:33.093Z,69.1
2017-09-18T09:30:43.136Z,69
2017-09-18T09:31:53.486Z,69.97
2017-09-18T09:33:03.890Z,69.68
2017-09-18T09:34:14.264Z,69.78
2017-09-18T09:35:24.318Z,69.87
2017-09-18T09:36:34.684Z,69.32
2017-09-18T09:37:44.790Z,69.04
2017-09-18T09:38:55.219Z,69.13
2017-09-18T09:40:05.584Z,68.78
2017-09-18T09:41:15.620Z,69.46
2017-09-18T09:42:25.347Z,69.17
2017-09-18T09:43:35.700Z,69.13
2017-09-18T09:44:46.125Z,68.98
2017-09-18T09:45:56.471Z,69.26
2017-09-18T09:47:06.187Z,69.07
2017-09-18T09:48:16.226Z,69.07
2017-09-18T09:49:26.572Z,69.46
2017-09-18T09:50:36.969Z,69.36
2017-09-18T09:51:47.318Z,68.62
2017-09-18T09:52:57.677Z,68.91
2017-09-18T09:54:08.038Z,68.56
2017-09-18T09:55:18.397Z,68.46
2017-09-18T09:56:28.825Z,68.37
2017-09-18T09:57:38.885Z,68.56
2017-09-18T09:58:50.668Z,68.95
2017-09-18T10:00:01.057Z,68.75
2017-09-18T10:01:11.428Z,69.04
2017-09-18T10:02:21.778Z,69.43
2017-09-18T10:03:31.810Z,69.53
2017-09-18T10:04:42.157Z,69.53
2017-09-18T10:05:52.499Z,69.92
2017-09-18T10:07:02.537Z,69.59
2017-09-18T10:08:12.896Z,69.4
2017-09-18T10:09:22.295Z,69.24
2017-09-18T10:10:32.666Z,69.24
2017-09-18T10:11:42.713Z,69.24
2017-09-18T10:12:53.061Z,69.24
2017-09-18T10:14:05.658Z,69.33
2017-09-18T10:15:16.014Z,69.24
2017-09-18T10:16:26.386Z,69.04
2017-09-18T10:17:36.440Z,68.88
2017-09-18T10:18:46.478Z,68.69
2017-09-18T10:19:56.610Z,68.88
2017-09-18T10:21:06.976Z,68.98
2017-09-18T10:22:17.348Z,68.98
2017-09-18T10:23:27.689Z,68.88
2017-09-18T10:24:37.739Z,69.08
2017-09-18T10:25:48.130Z,69.37
2017-09-18T10:26:58.493Z,69.27
2017-09-18T10:28:12.744Z,69.37
2017-09-18T10:29:22.794Z,68.98
2017-09-18T10:30:33.150Z,68.98
2017-09-18T10:31:43.516Z,68.79
2017-09-18T10:32:53.570Z,69.31
2017-09-18T10:34:03.926Z,69.21
2017-09-18T10:35:14.361Z,69.01
2017-09-18T10:36:24.392Z,68.82
2017-09-18T10:37:34.443Z,68.82
2017-09-18T10:38:44.807Z,69.11
2017-09-18T10:39:55.171Z,69.37
2017-09-18T10:41:05.534Z,69.37
2017-09-18T10:42:15.570Z,69.27
2017-09-18T10:43:25.929Z,69.37
2017-09-18T10:44:36.295Z,69.27
2017-09-18T10:45:46.669Z,69.37
2017-09-18T10:46:57.086Z,69.46
2017-09-18T10:48:07.452Z,69.56
2017-09-18T10:49:17.490Z,69.37
2017-09-18T10:50:27.853Z,69.27
2017-09-18T10:51:38.211Z,69.27
2017-09-18T10:52:48.607Z,69.46
2017-09-18T10:53:59.015Z,68.91
2017-09-18T10:55:09.058Z,68.91
2017-09-18T10:56:19.407Z,69.4
2017-09-18T10:57:29.448Z,69.11
2017-09-18T10:58:39.214Z,68.66
2017-09-18T10:59:49.567Z,68.85
2017-09-18T11:00:59.932Z,69.05
2017-09-18T11:02:10.298Z,69.05
2017-09-18T11:03:20.649Z,69.24
2017-09-18T11:04:30.739Z,69.34
2017-09-18T11:05:40.787Z,68.76
2017-09-18T11:06:51.160Z,69.53
2017-09-18T11:08:01.518Z,69.5
2017-09-18T11:09:11.879Z,69.31
2017-09-18T11:10:22.244Z,69.5
2017-09-18T11:11:32.602Z,69.11
2017-09-18T11:12:42.635Z,69.21
2017-09-18T11:13:53.013Z,69.43
2017-09-18T11:24:33.630Z,68.95
2017-09-18T11:25:43.024Z,68.37
2017-09-18T11:26:53.570Z,68.5
2017-09-18T11:28:03.615Z,68.89
2017-09-18T11:29:13.975Z,68.7
2017-09-18T11:30:24.020Z,68.24
2017-09-18T11:31:34.091Z,68.05
2017-09-18T11:32:44.697Z,67.76
2017-09-18T11:33:55.075Z,68.28
2017-09-18T11:35:05.479Z,68.18
2017-09-18T11:36:15.830Z,68.28
2017-09-18T11:37:26.184Z,68.47
2017-09-18T11:38:36.543Z,68.12
2017-09-18T11:39:46.915Z,68.02
2017-09-18T11:40:57.022Z,68.31
2017-09-18T11:42:07.379Z,68.54
2017-09-18T11:43:17.743Z,68.15
2017-09-18T11:44:28.102Z,68.54
2017-09-18T11:45:38.442Z,68.05
2017-09-18T11:46:48.796Z,68.15
2017-09-18T11:47:59.172Z,68.35
2017-09-18T11:49:09.527Z,68.6
2017-09-18T11:50:19.922Z,69.09
2017-09-18T11:51:30.296Z,69.06
2017-09-18T11:52:40.699Z,69.24
2017-09-18T11:53:51.066Z,69.34
2017-09-18T11:55:01.418Z,69.5
2017-09-18T11:56:11.770Z,69.12
2017-09-18T11:57:22.125Z,69.31
2017-09-18T11:58:32.157Z,69.6
2017-09-18T11:59:42.187Z,69.5
2017-09-18T12:00:52.551Z,69.6
2017-09-18T12:02:02.901Z,69.02
2017-09-18T12:03:12.940Z,69.31
2017-09-18T12:04:23.026Z,69.41
2017-09-18T12:05:33.073Z,69.47
2017-09-18T12:06:43.408Z,69.67
2017-09-18T12:07:53.757Z,70.05
2017-09-18T12:09:04.118Z,70.15
2017-09-18T12:10:14.505Z,69.37
2017-09-18T12:11:24.856Z,68.5
2017-09-18T12:12:35.238Z,68.63
2017-09-18T12:13:45.603Z,68.15
2017-09-18T12:14:55.981Z,68.76
2017-09-18T12:16:08.896Z,67.99
2017-09-18T12:17:19.236Z,68.02
2017-09-18T12:18:29.616Z,68.12
2017-09-18T12:19:39.652Z,67.66
2017-09-18T12:20:50.034Z,67.28
2017-09-18T12:22:00.433Z,68.18
2017-09-18T12:23:10.507Z,67.73
2017-09-18T12:24:20.541Z,68.02
2017-09-18T12:25:30.907Z,68.6
2017-09-18T12:26:40.643Z,68.79
2017-09-18T12:27:50.980Z,68.02
2017-09-18T12:29:01.342Z,68.31
2017-09-18T12:30:11.708Z,68.25
2017-09-18T12:31:22.072Z,68.35
2017-09-18T12:32:32.439Z,68.44
2017-09-18T12:33:42.823Z,68.05
2017-09-18T12:34:53.202Z,68.08
2017-09-18T12:36:03.234Z,68.18
2017-09-18T12:37:13.597Z,67.6
2017-09-18T12:38:23.954Z,68.18
2017-09-18T12:39:34.048Z,68.77
2017-09-18T12:40:44.440Z,68.83
2017-09-18T12:41:54.802Z,68.15
2017-09-18T12:43:04.526Z,67.96
2017-09-18T12:44:14.549Z,68.44
2017-09-18T12:45:24.590Z,68.38
2017-09-18T12:46:34.616Z,68.48
2017-09-18T12:47:44.971Z,68.25
2017-09-18T12:48:55.337Z,68.48
2017-09-18T12:50:05.399Z,68.28
2017-09-18T12:51:15.950Z,68.05
2017-09-18T12:52:26.299Z,68.28
2017-09-18T12:53:36.652Z,68.08
2017-09-18T12:54:47.027Z,67.99
2017-09-18T12:55:57.075Z,68.22
2017-09-18T12:57:07.421Z,68.67
2017-09-18T12:58:17.786Z,69.09
2017-09-18T12:59:28.421Z,68.6
2017-09-18T13:00:38.789Z,68.73
2017-09-18T13:01:49.169Z,69.67
2017-09-18T13:02:59.537Z,70.21
2017-09-18T13:04:09.903Z,70.09
2017-09-18T13:05:20.017Z,69.6
2017-09-18T13:06:30.369Z,69.73
2017-09-18T13:07:40.716Z,70.09
2017-09-18T13:08:50.442Z,70.44
2017-09-18T13:10:00.817Z,70.83
2017-09-18T13:11:11.777Z,70.79
2017-09-18T13:12:28.649Z,71.28
2017-09-18T13:13:39.610Z,71.14
2017-09-18T13:18:07.183Z,69.15
2017-09-18T13:19:17.555Z,69.15
2017-09-18T13:20:27.915Z,69.76
2017-09-18T13:21:40.882Z,70.86
2017-09-18T13:22:55.351Z,70.92
2017-09-18T13:24:05.717Z,71.3
2017-09-18T13:25:16.085Z,71.17
2017-09-18T13:26:26.328Z,71.14
2017-09-18T13:27:39.031Z,70.56
2017-09-18T13:28:49.401Z,69.46
2017-09-18T13:29:59.766Z,70.92
2017-09-18T13:31:09.832Z,70.4
2017-09-18T13:32:19.870Z,70.4
2017-09-18T13:33:29.889Z,70.75
2017-09-18T13:34:40.238Z,70.59
2017-09-18T13:35:50.597Z,70.5
2017-09-18T13:37:00.627Z,70.88
2017-09-18T13:38:10.672Z,70.65
2017-09-18T13:39:20.715Z,70.56
2017-09-18T13:40:30.768Z,70.62
2017-09-18T13:41:41.888Z,71
2017-09-18T13:42:51.937Z,71.1
2017-09-18T13:44:01.979Z,71.1
2017-09-18T13:45:12.328Z,70.87
2017-09-18T13:46:22.437Z,71.55
2017-09-18T13:47:32.479Z,71.64
2017-09-18T13:48:42.543Z,71.9
2017-09-18T13:49:52.581Z,71.32
2017-09-18T13:51:02.939Z,71.03
2017-09-18T13:52:13.293Z,71.22
2017-09-18T13:53:23.651Z,70.94
2017-09-18T13:54:34.016Z,70.68
2017-09-18T13:55:44.430Z,70.68
2017-09-18T13:56:55.145Z,70.48
2017-09-18T13:58:05.239Z,70.52
2017-09-18T13:59:15.616Z,69.94
2017-09-18T14:00:25.998Z,69.84
2017-09-18T14:01:37.290Z,69.84
2017-09-18T14:02:47.324Z,69.56
2017-09-18T14:03:57.725Z,70.04
2017-09-18T14:05:08.067Z,70.17
2017-09-18T14:06:18.423Z,70.17
2017-09-18T14:07:28.467Z,69.78
2017-09-18T14:14:23.203Z,69.88
2017-09-18T14:15:33.611Z,69.92
2017-09-18T14:16:43.987Z,70.1
2017-09-18T14:17:54.368Z,69.92
2017-09-18T14:19:04.422Z,69.82
2017-09-18T14:20:14.786Z,70.46
2017-09-18T14:21:25.178Z,69.98
2017-09-18T14:22:35.915Z,70.07
2017-09-18T14:23:46.272Z,70.07
2017-09-18T14:24:56.625Z,70.36
2017-09-18T14:26:07.006Z,70.26
2017-09-18T14:27:17.104Z,70.26
2017-09-18T14:28:27.466Z,70.36
2017-09-18T14:29:37.823Z,70.26
2017-09-18T14:30:48.177Z,70.36
2017-09-18T14:31:58.227Z,70.26
2017-09-18T14:33:08.664Z,69.98
2017-09-18T14:34:19.010Z,70.26
2017-09-18T14:35:29.383Z,70.56
2017-09-18T14:36:39.439Z,70.46
2017-09-18T14:37:49.814Z,70.84
2017-09-18T14:38:59.921Z,70.84
2017-09-18T14:40:10.298Z,70.32
2017-09-18T14:41:20.674Z,70.72
2017-09-18T14:42:31.021Z,70.32
2017-09-18T14:43:41.382Z,70.81
2017-09-18T14:44:51.797Z,70.32
2017-09-18T14:46:02.155Z,70.32
2017-09-18T14:47:12.193Z,70.42
2017-09-18T14:48:22.546Z,70.52
2017-09-18T14:49:32.915Z,70.32
2017-09-18T14:50:43.017Z,70.81
2017-09-18T14:51:53.364Z,71.26
2017-09-18T14:53:03.723Z,71.06
2017-09-18T14:54:14.084Z,71.06
2017-09-18T14:55:24.451Z,71.16
2017-09-18T14:56:34.826Z,71.03
2017-09-18T14:57:44.866Z,71.12
2017-09-18T14:58:55.252Z,71.51
2017-09-18T15:00:04.978Z,71.9
2017-09-18T15:01:15.356Z,71.7
2017-09-18T15:02:25.745Z,71.61
2017-09-18T15:03:36.132Z,71.77
2017-09-18T15:04:46.500Z,71.28
2017-09-18T15:05:56.539Z,71.77
2017-09-18T15:07:06.901Z,71.86
2017-09-18T15:08:17.325Z,71.77
2017-09-18T15:09:27.692Z,71.77
2017-09-18T15:10:37.461Z,71.48
2017-09-18T15:11:47.492Z,71.86
2017-09-18T15:12:57.869Z,71.77
2017-09-18T15:14:08.285Z,71.25
2017-09-18T15:15:18.635Z,71.34
2017-09-18T15:16:28.671Z,71.67
2017-09-18T15:17:38.723Z,71.73
2017-09-18T15:18:49.096Z,71.64
2017-09-18T15:19:59.501Z,71.64
2017-09-18T15:21:09.886Z,71.44
2017-09-18T15:22:20.257Z,71.06
2017-09-18T15:23:30.297Z,71.25
2017-09-18T15:24:40.661Z,71.15
2017-09-18T15:25:51.081Z,70.76
2017-09-18T15:27:01.088Z,71.06
2017-09-18T15:28:11.435Z,71.06
2017-09-18T15:29:21.479Z,70.76
2017-09-18T15:30:31.833Z,71.06
2017-09-18T15:31:41.874Z,71.06
2017-09-18T15:32:52.249Z,70.67
2017-09-18T15:34:02.619Z,70.86
2017-09-18T15:35:12.989Z,71.06
2017-09-18T15:36:23.369Z,71.06
2017-09-18T15:37:33.785Z,70.76
2017-09-18T15:38:44.137Z,70.73
2017-09-18T15:39:54.494Z,70.67
2017-09-18T15:41:04.854Z,70.76
2017-09-18T15:42:14.884Z,71.06
2017-09-18T15:43:25.301Z,70.64
2017-09-18T15:44:35.659Z,70.96
2017-09-18T15:45:46.007Z,71.22
2017-09-18T15:46:56.403Z,70.86
2017-09-18T15:48:06.780Z,70.96
2017-09-18T15:49:16.882Z,70.76
2017-09-18T15:50:27.275Z,70.67
2017-09-18T15:51:37.693Z,70.67
2017-09-18T15:52:47.739Z,70.22
2017-09-18T15:53:58.121Z,70.32
2017-09-18T15:55:08.230Z,70.7
2017-09-18T15:56:18.598Z,70.48
2017-09-18T15:57:28.636Z,70.8
2017-09-18T15:58:39.014Z,70.61